Time;durP1;ratioP1;P1;durP2;ratioP2;P2;SDS_P1;SDS_P2;PMS_P1;PMS_P2;Temp;Humidity;BMP_temperature;BMP_pressure;BME280_temperature;BME280_humidity;BME280_pressure;Samples;Min_cycle;Max_cycle;Signal;HPM_P1;HPM_P2
2022/08/18 00:02:20;;;;;;;22.75;19.23;;;;;;;24.27;73.08;100340.38;5071851;28;20460;-67
2022/08/18 00:04:46;;;;;;;19.45;17.40;;;;;;;24.27;73.15;100341.22;5073436;28;20028;-68
2022/08/18 00:07:17;;;;;;;20.75;18.15;;;;;;;24.26;73.03;100350.25;5068641;28;20040;-69
2022/08/18 00:09:43;;;;;;;23.20;18.33;;;;;;;24.30;73.01;100348.19;5074575;28;20464;-68
2022/08/18 00:12:16;;;;;;;20.95;18.63;;;;;;;24.28;72.77;100348.28;5074165;28;20035;-67
2022/08/18 00:14:43;;;;;;;22.30;19.33;;;;;;;24.30;72.93;100350.88;5062359;28;20055;-67
2022/08/18 00:17:08;;;;;;;19.42;16.30;;;;;;;24.28;72.84;100350.97;5086081;28;20070;-68
2022/08/18 00:19:33;;;;;;;24.88;20.13;;;;;;;24.30;72.75;100348.19;5070854;28;20044;-68
2022/08/18 00:21:59;;;;;;;18.92;16.60;;;;;;;24.28;72.92;100348.28;5061124;28;20037;-69
2022/08/18 00:24:25;;;;;;;16.10;14.32;;;;;;;24.28;72.73;100347.44;5071593;28;20036;-67
2022/08/18 00:26:50;;;;;;;17.75;15.88;;;;;;;24.29;72.70;100341.09;5072125;28;20415;-67
2022/08/18 00:29:16;;;;;;;20.00;16.98;;;;;;;24.30;72.47;100334.75;5070375;28;20170;-69
2022/08/18 00:31:41;;;;;;;16.77;14.45;;;;;;;24.31;72.42;100345.38;5072174;28;20104;-69
2022/08/18 00:34:07;;;;;;;18.80;16.75;;;;;;;24.33;72.42;100329.97;5073073;28;20115;-68
2022/08/18 00:36:33;;;;;;;17.50;15.52;;;;;;;24.37;72.32;100335.97;5066664;28;20047;-67
2022/08/18 00:38:59;;;;;;;20.58;15.77;;;;;;;24.36;72.41;100334.25;5063938;28;20514;-66
2022/08/18 00:41:25;;;;;;;18.30;16.05;;;;;;;24.37;72.48;100340.47;5061187;28;20037;-67
2022/08/18 00:43:51;;;;;;;23.88;20.77;;;;;;;24.34;72.57;100344.28;5059879;28;20028;-68
2022/08/18 00:46:24;;;;;;;19.10;16.92;;;;;;;24.33;72.53;100338.03;5061799;28;20138;-69
2022/08/18 00:48:49;;;;;;;;;;;;;;;24.31;73.15;100342.69;5062660;28;20484;-70
2022/08/18 00:51:41;;;;;;;18.58;16.50;;;;;;;24.20;73.13;100344.50;5073361;28;20042;-68
2022/08/18 00:54:15;;;;;;;23.77;17.65;;;;;;;24.19;73.18;100348.19;5066579;28;20032;-68
2022/08/18 00:56:47;;;;;;;21.02;18.45;;;;;;;24.20;73.12;100340.00;5073039;28;20039;-68
2022/08/18 00:59:40;;;;;;;19.85;17.45;;;;;;;24.19;73.34;100330.25;5073142;28;20048;-69
2022/08/18 01:02:11;;;;;;;19.52;16.80;;;;;;;24.16;73.23;100335.00;5085106;28;20450;-68
2022/08/18 01:05:00;;;;;;;25.17;19.98;;;;;;;24.15;73.71;100342.19;5065837;28;20037;-68
2022/08/18 01:07:32;;;;;;;23.52;19.45;;;;;;;24.06;73.83;100346.47;5072707;28;20021;-67
2022/08/18 01:09:58;;;;;;;23.50;18.33;;;;;;;24.05;73.87;100349.25;5083525;28;20500;-68
2022/08/18 01:12:25;;;;;;;20.88;15.55;;;;;;;24.05;73.85;100344.72;5082718;28;20044;-69
2022/08/18 01:14:52;;;;;;;17.77;15.77;;;;;;;24.02;74.03;100345.00;5075669;28;20127;-69
2022/08/18 01:22:48;;;;;;;26.48;18.73;;;;;;;23.97;74.38;100354.38;5075562;28;20040;-68
2022/08/18 01:28:05;;;;;;;23.25;19.65;;;;;;;24.07;74.01;100334.75;5094504;28;20039;-70
2022/08/18 01:30:33;;;;;;;24.30;21.50;;;;;;;24.17;73.74;100332.19;5078953;28;20036;-68
2022/08/18 01:32:59;;;;;;;22.17;18.77;;;;;;;24.19;73.67;100338.28;5095365;28;20030;-68
2022/08/18 01:35:26;;;;;;;21.27;17.67;;;;;;;24.24;73.53;100336.09;5081960;28;20032;-68
2022/08/18 01:37:52;;;;;;;24.58;20.83;;;;;;;24.31;73.31;100326.56;5070708;28;20040;-67
2022/08/18 01:40:20;;;;;;;22.05;18.73;;;;;;;24.40;72.79;100326.84;5076334;28;20055;-68
2022/08/18 01:42:45;;;;;;;22.17;18.20;;;;;;;24.48;72.59;100324.41;5080074;28;20478;-69
2022/08/18 01:45:16;;;;;;;22.70;17.80;;;;;;;24.55;72.31;100329.16;5087789;28;20029;-68
2022/08/18 01:47:42;;;;;;;25.80;20.15;;;;;;;24.59;72.44;100329.75;5084763;28;20035;-69
2022/08/18 01:50:11;;;;;;;32.50;22.23;;;;;;;24.66;71.98;100330.97;5066929;28;20036;-69
2022/08/18 01:52:36;;;;;;;35.40;22.35;;;;;;;24.60;72.59;100328.78;5078456;28;20025;-67
2022/08/18 01:55:04;;;;;;;66.90;27.33;;;;;;;24.63;72.70;100328.53;5094802;28;20032;-68
2022/08/18 01:57:29;;;;;;;46.15;22.27;;;;;;;24.65;73.04;100337.31;5077682;28;20094;-67
2022/08/18 01:59:55;;;;;;;56.75;23.17;;;;;;;24.65;73.37;100323.88;5075270;28;20040;-68
2022/08/18 02:02:25;;;;;;;47.53;21.40;;;;;;;24.67;73.53;100327.31;5083750;28;20037;-68
2022/08/18 02:04:55;;;;;;;123.55;25.67;;;;;;;24.67;74.00;100327.31;5075663;28;20085;-68
2022/08/18 02:07:21;;;;;;;72.20;23.30;;;;;;;24.67;74.43;100327.31;5076030;28;20029;-69
2022/08/18 02:09:47;;;;;;;95.82;23.35;;;;;;;24.64;75.07;100335.59;5076587;28;20081;-68
2022/08/18 02:12:13;;;;;;;86.13;23.38;;;;;;;24.55;75.83;100331.00;5096243;28;20135;-68
2022/08/18 02:14:39;;;;;;;66.85;21.13;;;;;;;24.56;76.06;100328.16;5083147;28;20038;-67
2022/08/18 02:17:08;;;;;;;93.47;21.42;;;;;;;24.61;76.30;100338.53;5077192;28;20403;-68
2022/08/18 02:19:44;;;;;;;87.03;20.50;;;;;;;24.55;77.02;100336.38;5082543;28;20044;-68
2022/08/18 02:22:13;;;;;;;121.57;20.05;;;;;;;24.49;77.55;100329.63;5077425;28;20037;-70
2022/08/18 02:24:39;;;;;;;70.50;19.73;;;;;;;24.47;78.08;100331.59;5072680;28;20060;-69
2022/08/18 02:27:06;;;;;;;154.35;20.42;;;;;;;24.44;78.44;100326.47;5076440;28;20028;-69
2022/08/18 02:29:33;;;;;;;67.03;16.90;;;;;;;24.36;79.06;100328.88;5075034;28;20035;-68
2022/08/18 02:31:58;;;;;;;123.05;19.92;;;;;;;24.28;79.85;100326.81;5091415;28;20081;-68
2022/08/18 02:34:24;;;;;;;142.80;20.35;;;;;;;24.30;80.27;100330.25;5092490;28;20036;-68
2022/08/18 02:36:50;;;;;;;101.07;18.08;;;;;;;24.27;80.51;100326.94;5074434;28;20051;-68
2022/08/18 02:39:16;;;;;;;57.83;16.20;;;;;;;24.20;81.11;100329.25;5082195;28;20555;-69
2022/08/18 02:41:41;;;;;;;61.78;16.35;;;;;;;24.22;81.20;100324.63;5067627;28;20068;-69
2022/08/18 02:44:08;;;;;;;161.85;20.23;;;;;;;24.25;81.37;100320.84;5088606;28;20043;-68
2022/08/18 02:46:34;;;;;;;47.42;13.25;;;;;;;24.17;82.00;100337.53;5059402;28;20041;-68
2022/08/18 02:48:59;;;;;;;67.25;16.48;;;;;;;24.14;82.44;100323.50;5068488;28;20486;-69
2022/08/18 02:51:25;;;;;;;66.15;17.05;;;;;;;24.18;82.11;100319.63;5069741;28;20545;-69
2022/08/18 02:53:50;;;;;;;125.57;18.65;;;;;;;24.16;82.70;100327.78;5075129;28;20037;-69
2022/08/18 02:56:23;;;;;;;73.32;17.92;;;;;;;24.10;83.14;100317.56;5074759;28;20060;-69
2022/08/18 02:58:52;;;;;;;100.22;18.52;;;;;;;24.09;83.30;100318.50;5074169;28;20044;-67
2022/08/18 03:01:18;;;;;;;145.98;23.50;;;;;;;24.05;83.71;100320.59;5067938;28;20120;-68
2022/08/18 03:03:44;;;;;;;133.85;23.75;;;;;;;24.02;83.54;100314.63;5059289;28;20462;-68
2022/08/18 03:06:09;;;;;;;54.38;19.23;;;;;;;23.99;83.48;100326.44;5074947;28;20116;-67
2022/08/18 03:08:35;;;;;;;67.28;21.08;;;;;;;24.02;83.93;100325.38;5073009;28;20040;-68
2022/08/18 03:11:00;;;;;;;105.20;25.35;;;;;;;24.02;83.69;100322.69;5074905;28;20108;-67
2022/08/18 03:13:26;;;;;;;88.07;23.77;;;;;;;24.02;83.87;100325.38;5070843;28;20045;-69
2022/08/18 03:15:52;;;;;;;75.70;21.33;;;;;;;23.99;84.26;100326.44;5065574;28;20036;-68
2022/08/18 03:18:17;;;;;;;98.53;23.27;;;;;;;24.03;84.02;100329.75;5069112;28;20028;-66
2022/08/18 03:20:44;;;;;;;87.57;22.20;;;;;;;24.08;83.51;100330.22;5065239;28;20040;-67
2022/08/18 03:23:10;;;;;;;60.72;17.70;;;;;;;24.10;83.36;100325.63;5066304;28;20457;-67
2022/08/18 03:25:35;;;;;;;90.20;16.77;;;;;;;24.11;83.50;100329.16;5066186;28;20604;-68
2022/08/18 03:28:02;;;;;;;169.07;22.30;;;;;;;24.06;83.90;100329.50;5064133;28;20032;-67
2022/08/18 03:30:28;;;;;;;53.38;15.63;;;;;;;24.11;83.88;100329.16;5073583;28;20096;-68
2022/08/18 03:32:53;;;;;;;59.30;16.52;;;;;;;24.17;83.74;100317.91;5086489;28;20401;-68
2022/08/18 03:35:19;;;;;;;89.78;17.17;;;;;;;24.17;83.46;100318.75;5079157;28;20120;-68
2022/08/18 03:37:44;;;;;;;89.32;16.38;;;;;;;24.17;83.48;100324.13;5073654;28;20056;-68
2022/08/18 03:40:10;;;;;;;29.33;13.85;;;;;;;24.16;83.63;100333.16;5071366;28;20056;-68
2022/08/18 03:42:36;;;;;;;65.88;16.48;;;;;;;24.21;83.50;100333.63;5071311;28;20024;-66
2022/08/18 03:45:03;;;;;;;64.05;17.58;;;;;;;24.21;83.89;100335.47;5060619;28;20063;-67
2022/08/18 03:47:28;;;;;;;146.32;20.40;;;;;;;24.21;83.76;100336.31;5058180;28;20090;-67
2022/08/18 03:49:53;;;;;;;63.42;17.00;;;;;;;24.10;84.01;100330.97;5062414;28;20041;-67
2022/08/18 03:52:19;;;;;;;80.65;17.10;;;;;;;24.12;83.97;100342.44;5057074;28;20056;-69
2022/08/18 03:54:45;;;;;;;51.20;16.40;;;;;;;24.23;83.48;100346.97;5064956;28;20086;-69
2022/08/18 03:57:11;;;;;;;48.92;16.02;;;;;;;24.24;83.40;100349.50;5073021;28;20038;-68
2022/08/18 03:59:42;;;;;;;35.70;15.23;;;;;;;24.34;82.86;100349.66;5074786;28;20044;-68
2022/08/18 04:02:08;;;;;;;36.80;15.57;;;;;;;24.39;82.69;100352.00;5085081;28;20391;-69
2022/08/18 04:04:33;;;;;;;88.57;16.45;;;;;;;24.43;82.01;100343.56;5070763;28;20033;-68
2022/08/18 04:07:04;;;;;;;37.55;13.05;;;;;;;24.46;81.79;100342.47;5074200;28;20135;-69
2022/08/18 04:09:31;;;;;;;37.58;15.23;;;;;;;24.56;81.26;100346.13;5070783;28;20390;-68
2022/08/18 04:12:01;;;;;;;44.58;13.57;;;;;;;24.55;80.93;100347.97;5072980;28;20032;-67
2022/08/18 04:14:30;;;;;;;41.42;15.00;;;;;;;24.61;80.63;100351.97;5074006;28;20048;-69
2022/08/18 04:16:57;;;;;;;30.55;13.30;;;;;;;24.68;80.33;100350.50;5085153;28;20123;-68
2022/08/18 04:19:22;;;;;;;25.73;12.13;;;;;;;24.78;79.36;100354.16;5075902;28;20037;-68
2022/08/18 04:21:51;;;;;;;47.55;15.57;;;;;;;24.86;78.70;100358.06;5065012;28;20032;-69
2022/08/18 04:24:16;;;;;;;24.05;13.43;;;;;;;24.95;78.24;100351.91;5059726;28;20107;-68
2022/08/18 04:26:45;;;;;;;37.35;13.75;;;;;;;24.94;78.11;100358.28;5092167;28;20115;-66
2022/08/18 04:29:13;;;;;;;45.38;14.75;;;;;;;25.04;77.53;100361.91;5059806;28;20109;-68
2022/08/18 04:31:39;;;;;;;19.60;12.90;;;;;;;25.26;76.09;100364.56;5069088;28;20115;-69
2022/08/18 04:34:05;;;;;;;20.67;12.88;;;;;;;25.22;76.26;100360.44;5072252;28;20028;-69
2022/08/18 04:36:33;;;;;;;18.60;12.75;;;;;;;25.26;76.07;100361.88;5075674;28;20027;-68
2022/08/18 04:39:00;;;;;;;26.05;14.73;;;;;;;25.24;75.97;100363.81;5068799;28;20048;-68
2022/08/18 04:41:26;;;;;;;12.70;10.02;;;;;;;25.28;75.38;100361.75;5081078;28;20463;-69
2022/08/18 04:43:57;;;;;;;19.10;13.85;;;;;;;25.33;75.06;100361.34;5073484;28;20032;-68
2022/08/18 04:46:23;;;;;;;17.42;12.45;;;;;;;25.42;74.38;100363.28;5085122;28;20136;-70
2022/08/18 04:48:49;;;;;;;16.80;13.35;;;;;;;25.47;73.94;100363.75;5086853;28;20079;-68
2022/08/18 04:51:17;;;;;;;21.98;14.93;;;;;;;25.50;73.43;100366.19;5075036;28;20044;-68
2022/08/18 04:53:46;;;;;;;18.42;12.23;;;;;;;25.57;73.18;100361.97;5072560;28;20448;-68
2022/08/18 04:56:25;;;;;;;18.90;13.40;;;;;;;25.64;72.71;100363.16;5056937;28;20383;-69
2022/08/18 04:59:00;;;;;;;20.58;13.52;;;;;;;25.62;72.71;100364.28;5056263;28;20037;-68
2022/08/18 05:01:29;;;;;;;13.98;10.45;;;;;;;25.66;72.44;100369.28;5068803;28;20041;-69
2022/08/18 05:03:56;;;;;;;17.83;12.70;;;;;;;25.73;72.21;100370.47;5072045;28;20036;-69
2022/08/18 05:06:25;;;;;;;17.45;12.98;;;;;;;25.83;71.94;100361.63;5073010;28;20032;-69
2022/08/18 05:08:57;;;;;;;15.05;11.82;;;;;;;25.98;71.46;100357.63;5067584;28;20025;-68
2022/08/18 05:11:25;;;;;;;17.95;14.60;;;;;;;26.09;71.00;100362.91;5058342;28;20036;-69
2022/08/18 05:13:54;;;;;;;18.58;14.88;;;;;;;26.18;70.59;100364.81;5071037;28;20067;-69
2022/08/18 05:16:20;;;;;;;16.73;13.23;;;;;;;26.29;69.96;100375.50;5089463;28;20047;-66
2022/08/18 05:18:45;;;;;;;19.30;13.45;;;;;;;26.28;69.72;100373.78;5067755;28;20456;-68
2022/08/18 05:21:12;;;;;;;14.77;10.85;;;;;;;26.33;69.83;100372.53;5062105;28;20110;-69
2022/08/18 05:23:38;;;;;;;19.13;13.82;;;;;;;26.37;69.70;100374.84;5052900;28;20035;-69
2022/08/18 05:26:04;;;;;;;18.00;14.43;;;;;;;26.42;69.28;100374.44;5064654;28;20116;-68
2022/08/18 05:28:31;;;;;;;18.63;14.05;;;;;;;26.45;68.79;100371.47;5067171;28;20079;-67
2022/08/18 05:30:56;;;;;;;18.27;13.82;;;;;;;26.42;68.91;100377.13;5071854;28;20033;-69
2022/08/18 05:33:23;;;;;;;11.90;9.73;;;;;;;26.50;68.50;100364.72;5063481;28;20455;-67
2022/08/18 05:36:04;;;;;;;13.90;11.27;;;;;;;26.62;67.96;100376.25;5070572;28;20502;-67
2022/08/18 05:38:52;;;;;;;20.02;15.02;;;;;;;26.69;67.63;100365.75;5068844;28;20467;-67
2022/08/18 05:41:42;;;;;;;15.32;11.85;;;;;;;26.78;66.68;100370.34;5072878;28;20037;-68
2022/08/18 05:44:12;;;;;;;15.40;12.82;;;;;;;26.84;66.90;100374.31;5047968;28;20037;-69
2022/08/18 05:46:47;;;;;;;14.95;12.98;;;;;;;26.73;66.51;100376.16;5052723;28;20025;-69
2022/08/18 05:49:14;;;;;;;17.70;13.98;;;;;;;26.71;66.96;100383.50;5059293;28;20029;-68
2022/08/18 05:51:44;;;;;;;13.82;11.75;;;;;;;26.84;66.43;100377.00;5061223;28;20463;-68
2022/08/18 05:57:04;;;;;;;18.73;14.45;;;;;;;27.01;65.65;100376.34;5071254;28;20457;-68
2022/08/18 05:59:37;;;;;;;16.10;13.25;;;;;;;27.01;65.41;100374.50;5075879;28;20059;-69
2022/08/18 06:02:06;;;;;;;20.88;15.48;;;;;;;27.05;65.58;100380.47;5070903;28;20024;-68
2022/08/18 06:04:51;;;;;;;19.05;14.23;;;;;;;27.06;65.37;100381.31;5066037;28;20028;-69
2022/08/18 06:07:33;;;;;;;17.75;14.25;;;;;;;27.11;65.41;100384.47;5066680;28;20491;-67
2022/08/18 06:09:58;;;;;;;15.63;11.23;;;;;;;27.15;65.04;100389.44;5063440;28;20024;-68
2022/08/18 06:12:33;;;;;;;16.13;13.27;;;;;;;27.17;65.08;100390.19;5070064;28;20047;-67
2022/08/18 06:15:23;;;;;;;19.52;14.23;;;;;;;27.19;65.03;100393.56;5049864;28;20068;-67
2022/08/18 06:18:29;;;;;;;18.05;14.23;;;;;;;27.22;64.73;100390.59;5069199;28;20033;-68
2022/08/18 06:21:10;;;;;;;18.67;14.88;;;;;;;27.22;64.36;100390.59;5068939;28;20509;-69
2022/08/18 06:24:00;;;;;;;17.52;14.35;;;;;;;27.24;64.35;100395.84;5073551;28;20032;-72
2022/08/18 06:26:38;;;;;;;19.77;15.73;;;;;;;27.26;64.29;100396.56;5077529;28;20041;-69
2022/08/18 06:29:29;;;;;;;19.67;14.98;;;;;;;27.38;64.24;100397.28;5072137;28;20063;-69
2022/08/18 06:32:13;;;;;;;18.08;14.63;;;;;;;27.59;63.12;100395.31;5075087;28;20475;-68
2022/08/18 06:34:41;;;;;;;18.45;14.95;;;;;;;27.82;62.63;100395.03;5069254;28;20025;-68
2022/08/18 06:37:16;;;;;;;17.77;14.35;;;;;;;27.91;62.04;100394.16;5069080;28;20403;-70
2022/08/18 06:39:49;;;;;;;16.23;13.10;;;;;;;28.10;61.82;100388.72;5075725;28;20195;-70
2022/08/18 06:42:24;;;;;;;14.60;12.50;;;;;;;28.28;60.83;100396.06;5074359;28;20036;-71
2022/08/18 06:44:56;;;;;;;15.65;12.82;;;;;;;28.47;60.46;100396.88;5071196;28;20033;-66
2022/08/18 06:47:44;;;;;;;18.55;15.48;;;;;;;28.62;60.09;100397.25;5076738;28;20036;-73
2022/08/18 06:50:33;;;;;;;17.83;15.00;;;;;;;28.71;59.10;100393.66;5073343;28;20067;-73
2022/08/18 06:53:03;;;;;;;19.88;16.58;;;;;;;28.85;59.19;100388.75;5055222;28;20029;-73
2022/08/18 06:55:42;;;;;;;20.08;15.45;;;;;;;28.92;58.43;100396.09;5062245;28;20062;-73
2022/08/18 06:58:19;;;;;;;16.55;13.30;;;;;;;28.87;58.18;100398.41;5073455;28;20475;-72
2022/08/18 07:01:00;;;;;;;20.42;15.30;;;;;;;28.93;58.19;100402.38;5069089;28;20127;-73
2022/08/18 07:03:38;;;;;;;23.30;18.92;;;;;;;28.91;58.00;100404.38;5057232;28;20043;-73
2022/08/18 07:06:26;;;;;;;23.48;17.52;;;;;;;28.82;58.43;100405.28;5066363;28;20463;-72
2022/08/18 07:08:54;;;;;;;20.52;16.08;;;;;;;28.83;58.37;100401.56;5066859;28;20116;-72
2022/08/18 07:11:27;;;;;;;21.83;17.45;;;;;;;28.87;58.19;100393.00;5080615;28;20036;-73
2022/08/18 07:14:11;;;;;;;19.00;17.00;;;;;;;28.87;58.60;100397.56;5075287;28;20041;-74
2022/08/18 07:16:36;;;;;;;22.33;17.60;;;;;;;28.85;58.25;100404.97;5085972;28;20378;-73
2022/08/18 07:19:15;;;;;;;22.90;19.75;;;;;;;28.71;58.45;100396.34;5095220;28;20510;-73
2022/08/18 07:21:42;;;;;;;21.83;17.92;;;;;;;28.81;58.62;100403.59;5095264;28;20515;-73
2022/08/18 07:24:26;;;;;;;21.10;18.90;;;;;;;28.90;58.21;100402.66;5094805;28;20107;-73
2022/08/18 07:27:16;;;;;;;14.23;12.68;;;;;;;29.07;57.70;100401.88;5080693;28;20056;-73
2022/08/18 07:30:17;;;;;;;20.52;16.77;;;;;;;29.37;56.89;100400.69;5054920;28;20097;-73
2022/08/18 07:32:50;;;;;;;23.10;18.80;;;;;;;29.58;56.32;100407.66;5056281;28;20045;-69
2022/08/18 07:35:23;;;;;;;23.02;20.30;;;;;;;29.75;55.38;100404.09;5067509;28;20045;-72
2022/08/18 07:38:00;;;;;;;11.93;10.40;;;;;;;29.84;54.79;100405.88;5059019;28;20097;-73
2022/08/18 07:40:37;;;;;;;21.83;18.80;;;;;;;29.96;55.28;100411.88;5072291;28;20094;-73
2022/08/18 07:43:12;;;;;;;24.00;21.45;;;;;;;29.99;54.74;100406.13;5059620;28;20090;-72
2022/08/18 07:45:43;;;;;;;19.25;17.30;;;;;;;29.92;55.00;100410.47;5071104;28;20021;-74
2022/08/18 07:48:17;;;;;;;15.70;13.85;;;;;;;29.98;54.81;100409.00;5056733;28;20393;-74
2022/08/18 07:51:21;;;;;;;15.63;14.13;;;;;;;30.14;54.17;100414.53;5068075;28;20055;-74
2022/08/18 07:53:53;;;;;;;10.77;9.68;;;;;;;30.24;54.04;100418.00;5056870;28;20047;-71
2022/08/18 07:56:31;;;;;;;15.77;13.23;;;;;;;30.35;53.82;100406.91;5072584;28;20035;-73
2022/08/18 07:59:08;;;;;;;12.48;10.55;;;;;;;30.52;52.06;100410.59;5075041;28;20045;-74
2022/08/18 08:01:48;;;;;;;12.75;11.45;;;;;;;30.64;52.10;100403.88;5074843;28;20036;-73
2022/08/18 08:04:23;;;;;;;10.63;9.52;;;;;;;30.77;52.27;100405.31;5074721;28;20109;-72
2022/08/18 08:06:57;;;;;;;12.02;10.88;;;;;;;30.79;51.97;100408.69;5073744;28;20033;-73
2022/08/18 08:10:00;;;;;;;11.15;10.07;;;;;;;30.82;51.52;100408.38;5074019;28;20475;-73
2022/08/18 08:12:45;;;;;;;20.88;12.75;;;;;;;30.92;51.65;100406.34;5073318;28;20101;-74
2022/08/18 08:15:40;;;;;;;13.80;12.40;;;;;;;30.99;51.82;100410.13;5073989;28;20033;-71
2022/08/18 08:18:28;;;;;;;14.85;13.02;;;;;;;31.03;50.97;100405.22;5064826;28;20055;-74
2022/08/18 08:21:02;;;;;;;11.77;10.63;;;;;;;31.12;51.09;100405.09;5074245;28;20032;-74
2022/08/18 08:23:38;;;;;;;13.38;10.20;;;;;;;31.26;50.72;100408.16;5073794;28;20107;-74
2022/08/18 08:26:35;;;;;;;10.65;9.50;;;;;;;31.32;50.28;100399.38;5073801;28;20032;-73
2022/08/18 08:29:18;;;;;;;9.38;8.48;;;;;;;31.36;49.66;100403.47;5072928;28;20051;-73
2022/08/18 08:32:09;;;;;;;11.02;9.23;;;;;;;31.42;49.62;100405.50;5074096;28;20100;-74
2022/08/18 08:34:43;;;;;;;10.07;9.07;;;;;;;31.47;49.61;100408.56;5073392;28;20040;-73
2022/08/18 08:37:14;;;;;;;9.13;8.23;;;;;;;31.49;49.72;100411.97;5063973;28;20044;-74
2022/08/18 08:39:58;;;;;;;15.50;11.95;;;;;;;31.53;49.14;100407.03;5093320;28;20471;-75
2022/08/18 08:43:06;;;;;;;13.77;12.32;;;;;;;31.64;49.67;100404.84;5084868;28;20063;-74
2022/08/18 08:45:38;;;;;;;9.40;8.55;;;;;;;31.66;48.74;100396.53;5031002;28;20099;-76
2022/08/18 08:48:22;;;;;;;13.97;11.20;;;;;;;31.68;48.70;100394.50;5049468;28;20050;-76
2022/08/18 08:51:01;;;;;;;11.35;9.93;;;;;;;31.72;49.26;100394.97;5068045;28;20037;-75
2022/08/18 08:53:34;;;;;;;10.30;9.18;;;;;;;31.81;48.94;100402.97;5053365;28;20178;-75
2022/08/18 08:56:05;;;;;;;9.57;8.68;;;;;;;31.90;48.72;100392.97;5057163;28;20155;-74
2022/08/18 08:58:45;;;;;;;12.48;10.40;;;;;;;31.96;48.04;100397.75;5073461;28;20048;-76
2022/08/18 09:01:36;;;;;;;9.80;8.82;;;;;;;32.01;47.51;100395.34;5073260;28;20085;-76
2022/08/18 09:04:20;;;;;;;9.60;8.00;;;;;;;32.04;47.88;100395.03;5044338;28;20044;-75
2022/08/18 09:07:09;;;;;;;10.57;7.60;;;;;;;32.19;46.97;100399.72;5073200;28;20036;-75
2022/08/18 09:09:52;;;;;;;8.98;7.78;;;;;;;32.30;46.82;100397.50;5073126;28;20032;-75
2022/08/18 09:13:02;;;;;;;10.00;9.00;;;;;;;32.42;46.03;100392.56;5089977;28;20386;-76
2022/08/18 09:15:27;;;;;;;11.32;9.55;;;;;;;32.46;47.28;100393.06;5058671;28;20498;-75
2022/08/18 09:18:29;;;;;;;9.20;8.17;;;;;;;32.53;45.94;100394.91;5088200;28;20103;-75
2022/08/18 09:21:03;;;;;;;12.05;9.13;;;;;;;32.67;46.70;100389.75;5075282;28;20521;-76
2022/08/18 09:23:38;;;;;;;9.38;8.23;;;;;;;32.78;45.91;100398.38;5072750;28;20043;-75
2022/08/18 09:26:31;;;;;;;11.60;9.32;;;;;;;32.86;44.99;100389.34;5074106;28;20109;-75
2022/08/18 09:29:09;;;;;;;8.63;7.75;;;;;;;32.95;45.46;100388.28;5071860;28;20032;-77
2022/08/18 09:31:35;;;;;;;9.38;8.30;;;;;;;33.01;45.23;100381.31;5077936;28;20060;-75
2022/08/18 09:34:32;;;;;;;9.43;7.05;;;;;;;33.07;43.88;100389.56;5074909;28;20419;-75
2022/08/18 09:37:29;;;;;;;11.07;8.63;;;;;;;33.18;43.14;100388.34;5085063;28;20495;-76
2022/08/18 09:43:13;;;;;;;7.65;6.95;;;;;;;33.44;43.87;100393.44;5070109;28;20052;-75
2022/08/18 09:45:54;;;;;;;9.82;7.72;;;;;;;33.48;43.69;100389.34;5069350;28;20040;-76
2022/08/18 09:48:32;;;;;;;11.13;9.52;;;;;;;33.53;43.73;100389.66;5074182;28;20065;-75
2022/08/18 09:51:00;;;;;;;12.60;8.98;;;;;;;33.55;43.93;100390.34;5073071;28;20036;-75
2022/08/18 09:53:52;;;;;;;10.85;8.75;;;;;;;33.51;43.07;100386.25;5071460;28;20032;-76
2022/08/18 09:56:49;;;;;;;10.32;8.48;;;;;;;33.48;43.38;100378.47;5075632;28;20024;-77
2022/08/18 09:59:32;;;;;;;9.50;8.50;;;;;;;33.55;43.26;100384.00;5074957;28;20106;-76
2022/08/18 10:02:07;;;;;;;10.52;8.75;;;;;;;33.57;43.02;100385.53;5075533;28;20036;-75
2022/08/18 10:04:50;;;;;;;9.77;8.35;;;;;;;33.58;43.37;100383.66;5075934;28;20033;-75
2022/08/18 10:07:32;;;;;;;9.52;8.63;;;;;;;33.63;42.85;100383.09;5056417;28;20095;-76
2022/08/18 10:09:57;;;;;;;;;;;;;;;33.53;42.90;100378.75;5074601;28;20032;-76
2022/08/18 10:12:38;;;;;;;7.90;7.10;;;;;;;33.67;43.25;100384.41;5075763;28;20202;-76
2022/08/18 10:15:07;;;;;;;8.45;7.60;;;;;;;33.81;43.35;100380.91;5075162;28;20024;-76
2022/08/18 10:17:48;;;;;;;9.07;8.18;;;;;;;33.93;42.01;100384.88;5074756;28;20032;-75
2022/08/18 10:20:37;;;;;;;11.88;9.90;;;;;;;34.08;42.17;100383.06;5091371;28;20032;-73
2022/08/18 10:23:06;;;;;;;11.57;8.70;;;;;;;34.26;42.19;100388.13;5094317;28;20028;-74
2022/08/18 10:25:40;;;;;;;8.68;7.78;;;;;;;34.36;41.33;100376.97;5071763;28;20029;-74
2022/08/18 10:28:09;;;;;;;9.43;8.50;;;;;;;34.50;41.50;100378.84;5072964;28;20025;-74
2022/08/18 10:30:35;;;;;;;9.90;7.80;;;;;;;34.68;40.85;100374.91;5073881;28;20487;-75
2022/08/18 10:33:06;;;;;;;8.43;7.60;;;;;;;34.84;40.15;100371.13;5073892;28;20055;-74
2022/08/18 10:35:34;;;;;;;9.82;7.90;;;;;;;34.81;40.43;100380.53;5086729;28;20028;-76
2022/08/18 10:38:04;;;;;;;10.88;8.60;;;;;;;34.94;40.15;100379.84;5074854;28;20029;-74
2022/08/18 10:40:31;;;;;;;9.95;8.45;;;;;;;35.09;39.67;100374.38;5070240;28;20057;-74
2022/08/18 10:43:09;;;;;;;9.75;8.70;;;;;;;34.89;38.57;100369.50;5082637;28;20027;-72
2022/08/18 10:45:48;;;;;;;9.40;8.45;;;;;;;34.97;39.40;100374.00;5076229;28;20047;-75
2022/08/18 10:48:28;;;;;;;9.88;8.48;;;;;;;34.96;39.83;100362.25;5075801;28;20115;-75
2022/08/18 10:51:41;;;;;;;9.07;8.18;;;;;;;34.87;38.96;100368.88;5075202;28;20036;-76
2022/08/18 10:54:19;;;;;;;8.30;7.50;;;;;;;34.91;38.88;100363.84;5076492;28;20063;-73
2022/08/18 10:57:11;;;;;;;8.35;7.55;;;;;;;34.83;38.39;100374.88;5073332;28;20372;-73
2022/08/18 10:59:48;;;;;;;8.83;7.93;;;;;;;34.90;39.52;100356.69;5079133;28;20024;-76
2022/08/18 11:02:44;;;;;;;9.35;7.72;;;;;;;35.03;38.98;100359.59;5095345;28;20032;-75
2022/08/18 11:05:13;;;;;;;9.45;7.53;;;;;;;35.01;39.75;100359.81;5077481;28;20081;-73
2022/08/18 11:07:42;;;;;;;12.65;8.07;;;;;;;35.02;39.59;100355.19;5076880;28;20021;-75
2022/08/18 11:10:33;;;;;;;14.02;8.63;;;;;;;35.02;38.89;100353.28;5095356;28;20043;-75
2022/08/18 11:13:48;;;;;;;9.93;7.38;;;;;;;35.24;38.60;100354.16;5077155;28;20089;-73
2022/08/18 11:16:16;;;;;;;8.63;7.70;;;;;;;35.44;38.79;100351.63;5076833;28;20029;-76
2022/08/18 11:18:50;;;;;;;11.70;7.70;;;;;;;35.57;38.27;100350.09;5095618;28;20028;-75
2022/08/18 11:21:37;;;;;;;8.57;6.90;;;;;;;35.71;37.91;100352.75;5089213;28;20107;-75
2022/08/18 11:24:06;;;;;;;8.02;7.22;;;;;;;35.85;38.02;100353.69;5082850;28;20040;-75
2022/08/18 11:26:34;;;;;;;10.48;7.32;;;;;;;35.79;38.23;100349.03;5074894;28;20024;-75
2022/08/18 11:29:20;;;;;;;8.90;7.03;;;;;;;35.69;37.47;100343.03;5076026;28;20041;-75
2022/08/18 11:31:48;;;;;;;7.85;7.13;;;;;;;35.65;38.34;100344.50;5054357;28;20049;-76
2022/08/18 11:34:17;;;;;;;9.10;6.85;;;;;;;35.59;38.17;100339.78;5054602;28;20507;-75
2022/08/18 11:36:43;;;;;;;10.18;7.82;;;;;;;35.63;38.12;100336.50;5054492;28;20033;-75
2022/08/18 11:39:10;;;;;;;9.00;7.72;;;;;;;35.55;38.15;100336.63;5070055;28;20053;-75
2022/08/18 11:41:36;;;;;;;7.97;7.18;;;;;;;35.56;37.86;100334.75;5094559;28;20417;-75
2022/08/18 11:44:04;;;;;;;8.38;6.85;;;;;;;35.50;37.98;100339.94;5093991;28;20039;-75
2022/08/18 11:46:37;;;;;;;9.45;6.65;;;;;;;35.67;38.06;100337.78;5074349;28;20029;-74
2022/08/18 11:49:18;;;;;;;7.63;6.70;;;;;;;35.75;37.10;100339.53;5076892;28;20585;-73
2022/08/18 11:52:14;;;;;;;8.40;6.72;;;;;;;35.92;37.14;100329.13;5074217;28;20090;-74
2022/08/18 11:54:44;;;;;;;7.60;6.82;;;;;;;36.06;37.40;100330.09;5083013;28;20455;-75
2022/08/18 11:57:47;;;;;;;7.45;6.75;;;;;;;36.15;35.49;100326.13;5075815;28;20119;-75
2022/08/18 12:00:38;;;;;;;9.52;6.32;;;;;;;36.22;36.17;100325.13;5074006;28;20478;-76